Map

Track Data

SID SEASON NUMBER BASIN SUBBASIN NAME ISO_TIME NATURE LAT LON WMO_WIND WMO_PRES WMO_AGENCY TRACK_TYPE DIST2LAND LANDFALL IFLAG USA_AGENCY USA_ATCF_ID USA_LAT USA_LON USA_RECORD USA_STATUS USA_WIND USA_PRES USA_SSHS USA_R34_NE USA_R34_SE USA_R34_SW USA_R34_NW USA_R50_NE USA_R50_SE USA_R50_SW USA_R50_NW USA_R64_NE USA_R64_SE USA_R64_SW USA_R64_NW USA_POCI USA_ROCI USA_RMW USA_EYE TOKYO_LAT TOKYO_LON TOKYO_GRADE TOKYO_WIND TOKYO_PRES TOKYO_R50_DIR TOKYO_R50_LONG TOKYO_R50_SHORT TOKYO_R30_DIR TOKYO_R30_LONG TOKYO_R30_SHORT TOKYO_LAND CMA_LAT CMA_LON CMA_CAT CMA_WIND CMA_PRES HKO_LAT HKO_LON HKO_CAT HKO_WIND HKO_PRES NEWDELHI_LAT NEWDELHI_LON NEWDELHI_GRADE NEWDELHI_WIND NEWDELHI_PRES NEWDELHI_CI NEWDELHI_DP NEWDELHI_POCI REUNION_LAT REUNION_LON REUNION_TYPE REUNION_WIND REUNION_PRES REUNION_TNUM REUNION_CI REUNION_RMW REUNION_R34_NE REUNION_R34_SE REUNION_R34_SW REUNION_R34_NW REUNION_R50_NE REUNION_R50_SE REUNION_R50_SW REUNION_R50_NW REUNION_R64_NE REUNION_R64_SE REUNION_R64_SW REUNION_R64_NW BOM_LAT BOM_LON BOM_TYPE BOM_WIND BOM_PRES BOM_TNUM BOM_CI BOM_RMW BOM_R34_NE BOM_R34_SE BOM_R34_SW BOM_R34_NW BOM_R50_NE BOM_R50_SE BOM_R50_SW BOM_R50_NW BOM_R64_NE BOM_R64_SE BOM_R64_SW BOM_R64_NW BOM_ROCI BOM_POCI BOM_EYE BOM_POS_METHOD BOM_PRES_METHOD NADI_LAT NADI_LON NADI_CAT NADI_WIND NADI_PRES WELLINGTON_LAT WELLINGTON_LON WELLINGTON_WIND WELLINGTON_PRES DS824_LAT DS824_LON DS824_STAGE DS824_WIND DS824_PRES TD9636_LAT TD9636_LON TD9636_STAGE TD9636_WIND TD9636_PRES TD9635_LAT TD9635_LON TD9635_WIND TD9635_PRES TD9635_ROCI NEUMANN_LAT NEUMANN_LON NEUMANN_CLASS NEUMANN_WIND NEUMANN_PRES MLC_LAT MLC_LON MLC_CLASS MLC_WIND MLC_PRES USA_GUST BOM_GUST BOM_GUST_PER REUNION_GUST REUNION_GUST_PER USA_SEAHGT USA_SEARAD_NE USA_SEARAD_SE USA_SEARAD_SW USA_SEARAD_NW STORM_SPEED STORM_DIR
1998262N13333 1998 67 NA NA IVAN 1998-09-19 00:00:00 TS 13.4000 -26.6000 25 1010 hurdat_atl main 992 992 O_____________ hurdat_atl AL091998 13.4000 -26.6000 TD 25 1010 -1 10 252
1998262N13333 1998 67 NA NA IVAN 1998-09-19 03:00:00 TS 13.2502 -27.0726 main 1047 1047 P_____________ AL091998 13.2502 -27.0726 TD 25 1010 -1 9 251
1998262N13333 1998 67 NA NA IVAN 1998-09-19 06:00:00 TS 13.1000 -27.5000 25 1010 hurdat_atl main 1094 1094 O_____________ hurdat_atl AL091998 13.1000 -27.5000 TD 25 1010 -1 8 249
1998262N13333 1998 67 NA NA IVAN 1998-09-19 09:00:00 TS 12.9624 -27.8575 main 1139 1139 P_____________ AL091998 12.9624 -27.8575 TD 25 1010 -1 7 254
1998262N13333 1998 67 NA NA IVAN 1998-09-19 12:00:00 TS 12.9000 -28.2000 25 1010 hurdat_atl main 1173 1173 O_____________ hurdat_atl AL091998 12.9000 -28.2000 TD 25 1010 -1 7 270
1998262N13333 1998 67 NA NA IVAN 1998-09-19 15:00:00 TS 12.9625 -28.6074 main 1213 1213 P_____________ AL091998 12.9625 -28.6074 TD 25 1010 -1 8 284
1998262N13333 1998 67 NA NA IVAN 1998-09-19 18:00:00 TS 13.1000 -29.0000 25 1010 hurdat_atl main 1254 1254 O_____________ hurdat_atl AL091998 13.1000 -29.0000 TD 25 1010 -1 7 290
1998262N13333 1998 67 NA NA IVAN 1998-09-19 21:00:00 TS 13.1973 -29.2853 main 1284 1284 P_____________ AL091998 13.1973 -29.2853 TD 27 1009 -1 7 297
1998262N13333 1998 67 NA NA IVAN 1998-09-20 00:00:00 TS 13.4000 -29.6000 30 1009 hurdat_atl main 1313 1313 O_____________ hurdat_atl AL091998 13.4000 -29.6000 TD 30 1009 -1 10 308
1998262N13333 1998 67 NA NA IVAN 1998-09-20 03:00:00 TS 13.8051 -30.0773 main 1362 1361 P_____________ AL091998 13.8051 -30.0773 TD 30 1009 -1 13 313
1998262N13333 1998 67 NA NA IVAN 1998-09-20 06:00:00 TS 14.3000 -30.6000 30 1009 hurdat_atl main 1411 1411 O_____________ hurdat_atl AL091998 14.3000 -30.6000 TD 30 1009 -1 13 316
1998262N13333 1998 67 NA NA IVAN 1998-09-20 09:00:00 TS 14.7573 -31.0428 main 1452 1452 P_____________ AL091998 14.7573 -31.0428 TD 30 1008 -1 13 316
1998262N13333 1998 67 NA NA IVAN 1998-09-20 12:00:00 TS 15.2000 -31.5000 30 1008 hurdat_atl main 1505 1505 O_____________ hurdat_atl AL091998 15.2000 -31.5000 TD 30 1008 -1 13 312
1998262N13333 1998 67 NA NA IVAN 1998-09-20 15:00:00 TS 15.6075 -32.0352 main 1559 1559 P_____________ AL091998 15.6075 -32.0352 TD 32 1007 -1 13 307
1998262N13333 1998 67 NA NA IVAN 1998-09-20 18:00:00 TS 16.0000 -32.6000 35 1006 hurdat_atl main 1625 1625 O_____________ hurdat_atl AL091998 16.0000 -32.6000 TS 35 1006 0 13 307
1998262N13333 1998 67 NA NA IVAN 1998-09-20 21:00:00 TS 16.4148 -33.1426 main 1682 1682 P_____________ AL091998 16.4148 -33.1426 TS 35 1005 0 13 307
1998262N13333 1998 67 NA NA IVAN 1998-09-21 00:00:00 TS 16.8000 -33.7000 35 1005 hurdat_atl main 1749 1749 O_____________ hurdat_atl AL091998 16.8000 -33.7000 TS 35 1005 0 13 301
1998262N13333 1998 67 NA NA IVAN 1998-09-21 03:00:00 TS 17.1002 -34.3302 main 1816 1816 P_____________ AL091998 17.1002 -34.3302 TS 35 1004 0 13 298
1998262N13333 1998 67 NA NA IVAN 1998-09-21 06:00:00 TS 17.4000 -34.9000 35 1003 hurdat_atl main 1883 1883 O_____________ hurdat_atl AL091998 17.4000 -34.9000 TS 35 1003 0 12 306
1998262N13333 1998 67 NA NA IVAN 1998-09-21 09:00:00 TS 17.7848 -35.3101 main 1931 1931 P_____________ AL091998 17.7848 -35.3101 TS 35 1003 0 10 320
1998262N13333 1998 67 NA NA IVAN 1998-09-21 12:00:00 TS 18.2000 -35.6000 35 1003 hurdat_atl main 1959 1957 O_____________ hurdat_atl AL091998 18.2000 -35.6000 TS 35 1003 0 10 328
1998262N13333 1998 67 NA NA IVAN 1998-09-21 15:00:00 TS 18.5849 -35.8451 main 1971 1971 P_____________ AL091998 18.5849 -35.8451 TS 37 1002 0 9 335
1998262N13333 1998 67 NA NA IVAN 1998-09-21 18:00:00 TS 19.0000 -36.0000 40 1002 hurdat_atl main 1985 1981 O_____________ hurdat_atl AL091998 19.0000 -36.0000 TS 40 1002 0 9 346
1998262N13333 1998 67 NA NA IVAN 1998-09-21 21:00:00 TS 19.4625 -36.0801 main 1987 1980 P_____________ AL091998 19.4625 -36.0801 TS 40 1001 0 10 354
1998262N13333 1998 67 NA NA IVAN 1998-09-22 00:00:00 TS 20.0000 -36.1000 40 1001 hurdat_atl main 1980 1974 O_____________ hurdat_atl AL091998 20.0000 -36.1000 TS 40 1001 0 12 359
1998262N13333 1998 67 NA NA IVAN 1998-09-22 03:00:00 TS 20.6050 -36.0854 main 1974 1970 P_____________ AL091998 20.6050 -36.0854 TS 42 1000 0 13 1
1998262N13333 1998 67 NA NA IVAN 1998-09-22 06:00:00 TS 21.3000 -36.1000 45 1000 hurdat_atl main 1970 1969 O_____________ hurdat_atl AL091998 21.3000 -36.1000 TS 45 1000 0 15 356
1998262N13333 1998 67 NA NA IVAN 1998-09-22 09:00:00 TS 22.0999 -36.1977 main 1978 1977 P_____________ AL091998 22.0999 -36.1977 TS 45 998 0 16 350
1998262N13333 1998 67 NA NA IVAN 1998-09-22 12:00:00 TS 22.9000 -36.4000 45 997 hurdat_atl main 1996 1996 O_____________ hurdat_atl AL091998 22.9000 -36.4000 TS 45 997 0 16 342
1998262N13333 1998 67 NA NA IVAN 1998-09-22 15:00:00 TS 23.5651 -36.7275 main 2028 2028 P_____________ AL091998 23.5651 -36.7275 TS 50 995 0 15 334
1998262N13333 1998 67 NA NA IVAN 1998-09-22 18:00:00 TS 24.2000 -37.1000 55 994 hurdat_atl main 2069 2066 O_____________ hurdat_atl AL091998 24.2000 -37.1000 TS 55 994 0 15 335
1998262N13333 1998 67 NA NA IVAN 1998-09-22 21:00:00 TS 24.8998 -37.4005 main 2077 2074 P_____________ AL091998 24.8998 -37.4005 TS 52 995 0 15 339
1998262N13333 1998 67 NA NA IVAN 1998-09-23 00:00:00 TS 25.6000 -37.7000 50 996 hurdat_atl main 2088 2085 O_____________ hurdat_atl AL091998 25.6000 -37.7000 TS 50 996 0 15 337
1998262N13333 1998 67 NA NA IVAN 1998-09-23 03:00:00 TS 26.2499 -38.0355 main 2103 2103 P_____________ AL091998 26.2499 -38.0355 TS 47 996 0 14 334
1998262N13333 1998 67 NA NA IVAN 1998-09-23 06:00:00 TS 26.9000 -38.4000 45 997 hurdat_atl main 2129 2127 O_____________ hurdat_atl AL091998 26.9000 -38.4000 TS 45 997 0 15 334
1998262N13333 1998 67 NA NA IVAN 1998-09-23 09:00:00 TS 27.5998 -38.7780 main 2156 2155 P_____________ AL091998 27.5998 -38.7780 TS 50 993 0 16 333
1998262N13333 1998 67 NA NA IVAN 1998-09-23 12:00:00 TS 28.3000 -39.2000 55 990 hurdat_atl main 2187 2187 O_____________ hurdat_atl AL091998 28.3000 -39.2000 TS 55 990 0 16 329
1998262N13333 1998 67 NA NA IVAN 1998-09-23 15:00:00 TS 28.9877 -39.7071 main 2229 2200 P_____________ AL091998 28.9877 -39.7071 TS 60 988 0 16 326
1998262N13333 1998 67 NA NA IVAN 1998-09-23 18:00:00 TS 29.6000 -40.2000 65 987 hurdat_atl main 2200 2132 O_____________ hurdat_atl AL091998 29.6000 -40.2000 HU 65 987 1 13 326
1998262N13333 1998 67 NA NA IVAN 1998-09-23 21:00:00 TS 30.0872 -40.5734 main 2132 2080 P_____________ AL091998 30.0872 -40.5734 HU 65 986 1 11 326
1998262N13333 1998 67 NA NA IVAN 1998-09-24 00:00:00 TS 30.5000 -40.9000 65 986 hurdat_atl main 2080 2023 O_____________ hurdat_atl AL091998 30.5000 -40.9000 HU 65 986 1 10 323
1998262N13333 1998 67 NA NA IVAN 1998-09-24 03:00:00 TS 30.8926 -41.2727 main 2023 1970 P_____________ AL091998 30.8926 -41.2727 HU 67 985 1 10 323
1998262N13333 1998 67 NA NA IVAN 1998-09-24 06:00:00 TS 31.3000 -41.6000 70 985 hurdat_atl main 1970 1922 O_____________ hurdat_atl AL091998 31.3000 -41.6000 HU 70 985 1 10 332
1998262N13333 1998 67 NA NA IVAN 1998-09-24 09:00:00 TS 31.7774 -41.8303 main 1912 1853 P_____________ AL091998 31.7774 -41.8303 HU 70 985 1 11 341
1998262N13333 1998 67 NA NA IVAN 1998-09-24 12:00:00 TS 32.3000 -42.0000 70 985 hurdat_atl main 1853 1795 O_____________ hurdat_atl AL091998 32.3000 -42.0000 HU 70 985 1 11 345
1998262N13333 1998 67 NA NA IVAN 1998-09-24 15:00:00 TS 32.8500 -42.1798 main 1786 1732 P_____________ AL091998 32.8500 -42.1798 HU 70 985 1 11 347
1998262N13333 1998 67 NA NA IVAN 1998-09-24 18:00:00 TS 33.4000 -42.3000 70 985 hurdat_atl main 1732 1679 O_____________ hurdat_atl AL091998 33.4000 -42.3000 HU 70 985 1 11 353
1998262N13333 1998 67 NA NA IVAN 1998-09-24 21:00:00 TS 33.9149 -42.3524 main 1679 1635 P_____________ AL091998 33.9149 -42.3524 HU 70 984 1 10 1
1998262N13333 1998 67 NA NA IVAN 1998-09-25 00:00:00 TS 34.4000 -42.3000 70 984 hurdat_atl main 1635 1602 O_____________ hurdat_atl AL091998 34.4000 -42.3000 HU 70 984 1 10 11
1998262N13333 1998 67 NA NA IVAN 1998-09-25 03:00:00 TS 34.8500 -42.1449 main 1607 1569 P_____________ AL091998 34.8500 -42.1449 HU 70 984 1 10 20
1998262N13333 1998 67 NA NA IVAN 1998-09-25 06:00:00 TS 35.3000 -41.9000 70 984 hurdat_atl main 1569 1533 O_____________ hurdat_atl AL091998 35.3000 -41.9000 HU 70 984 1 10 23
1998262N13333 1998 67 NA NA IVAN 1998-09-25 09:00:00 TS 35.7997 -41.6519 main 1533 1509 P_____________ AL091998 35.7997 -41.6519 HU 70 984 1 11 26
1998262N13333 1998 67 NA NA IVAN 1998-09-25 12:00:00 TS 36.3000 -41.3000 70 984 hurdat_atl main 1509 1494 O_____________ hurdat_atl AL091998 36.3000 -41.3000 HU 70 984 1 12 35
1998262N13333 1998 67 NA NA IVAN 1998-09-25 15:00:00 TS 36.7572 -40.8168 main 1493 1487 P_____________ AL091998 36.7572 -40.8168 HU 72 983 1 13 44
1998262N13333 1998 67 NA NA IVAN 1998-09-25 18:00:00 TS 37.2000 -40.2000 75 983 hurdat_atl main 1493 1489 O_____________ hurdat_atl AL091998 37.2000 -40.2000 HU 75 983 1 13 49
1998262N13333 1998 67 NA NA IVAN 1998-09-25 21:00:00 TS 37.6335 -39.5451 main 1503 1495 P_____________ AL091998 37.6335 -39.5451 HU 75 981 1 15 53
1998262N13333 1998 67 NA NA IVAN 1998-09-26 00:00:00 TS 38.1000 -38.7000 75 980 hurdat_atl main 1513 1511 O_____________ hurdat_atl AL091998 38.1000 -38.7000 HU 75 980 1 18 56
1998262N13333 1998 67 NA NA IVAN 1998-09-26 03:00:00 TS 38.6486 -37.6270 main 1546 1538 P_____________ AL091998 38.6486 -37.6270 HU 77 977 1 22 60
1998262N13333 1998 67 NA NA IVAN 1998-09-26 06:00:00 TS 39.2000 -36.3000 80 975 hurdat_atl main 1590 1590 O_____________ hurdat_atl AL091998 39.2000 -36.3000 HU 80 975 1 24 65
1998262N13333 1998 67 NA NA IVAN 1998-09-26 09:00:00 TS 39.6869 -34.7744 main 1661 1661 P_____________ AL091998 39.6869 -34.7744 HU 77 976 1 26 70
1998262N13333 1998 67 NA NA IVAN 1998-09-26 12:00:00 TS 40.1000 -33.1000 75 977 hurdat_atl main 1756 1756 O_____________ hurdat_atl AL091998 40.1000 -33.1000 HU 75 977 1 26 73
1998262N13333 1998 67 NA NA IVAN 1998-09-26 15:00:00 TS 40.4635 -31.4601 main 1844 1706 P_____________ AL091998 40.4635 -31.4601 HU 75 979 1 27 77
1998262N13333 1998 67 NA NA IVAN 1998-09-26 18:00:00 TS 40.7000 -29.7000 75 982 hurdat_atl main 1698 1544 O_____________ hurdat_atl AL091998 40.7000 -29.7000 HU 75 982 1 29 85
1998262N13333 1998 67 NA NA IVAN 1998-09-26 21:00:00 TS 40.7323 -27.6654 main 1536 1382 P_____________ AL091998 40.7323 -27.6654 HU 67 988 1 30 90
1998262N13333 1998 67 NA NA IVAN 1998-09-27 00:00:00 TS 40.7000 -25.7000 60 994 hurdat_atl main 1374 1250 O_____________ hurdat_atl AL091998 40.7000 -25.7000 TS 60 994 0 26 89
1998262N13333 1998 67 NA NA IVAN 1998-09-27 03:00:00 TS 40.7633 -24.1618 main 1250 1134 P_____________ AL091998 40.7633 -24.1618 TS 55 995 0 23 85
1998262N13333 1998 67 NA NA IVAN 1998-09-27 06:00:00 ET 40.9000 -22.7000 50 997 hurdat_atl main 1126 991 O_____________ hurdat_atl AL091998 40.9000 -22.7000 EX 50 997 -4 24 82
1998262N13333 1998 67 NA NA IVAN 1998-09-27 09:00:00 ET 41.0983 -21.0038 main 983 840 P_____________ AL091998 41.0983 -21.0038 EX 47 998 -4 27 81
1998262N13333 1998 67 NA NA IVAN 1998-09-27 12:00:00 ET 41.3000 -19.2000 45 1000 hurdat_atl main 832 693 O_____________ hurdat_atl AL091998 41.3000 -19.2000 EX 45 1000 -4 28 83
1998262N13333 1998 67 NA NA IVAN 1998-09-27 15:00:00 ET 41.4306 -17.3571 main 685 539 P_____________ AL091998 41.4306 -17.3571 EX 42 1001 -4 28 86
1998262N13333 1998 67 NA NA IVAN 1998-09-27 18:00:00 ET 41.5000 -15.5000 40 1002 hurdat_atl main 532 O_____________ hurdat_atl AL091998 41.5000 -15.5000 EX 40 1002 -4 28 87

About IBTrACS Database

This database is a web-friendly format of International Best Track Archive for Climate Stewardship (IBTrACS), a global best track data archive curated by NOAA dating back to 1842.

Updated: 2021-11-26